createdAt,value
2019-02-07T00:00:52.165Z,1009.31
2019-02-07T00:01:52.677Z,1009.34
2019-02-07T00:02:53.092Z,1009.31
2019-02-07T00:03:53.313Z,1009.32
2019-02-07T00:04:53.616Z,1009.41
2019-02-07T00:05:53.734Z,1009.38
2019-02-07T00:06:54.670Z,1009.37
2019-02-07T00:07:54.457Z,1009.35
2019-02-07T00:08:54.566Z,1009.45
2019-02-07T00:09:54.571Z,1009.34
2019-02-07T00:10:54.899Z,1009.31
2019-02-07T00:11:54.983Z,1009.28
2019-02-07T00:12:55.366Z,1009.25
2019-02-07T00:13:55.768Z,1009.26
2019-02-07T00:14:56.099Z,1009.23
2019-02-07T00:15:56.467Z,1009.28
2019-02-07T00:16:56.334Z,1009.27
2019-02-07T00:17:56.633Z,1009.19
2019-02-07T00:18:56.942Z,1009.16
2019-02-07T00:19:57.263Z,1009.17
2019-02-07T00:20:57.681Z,1009.18
2019-02-07T00:21:58.545Z,1009.17
2019-02-07T00:22:58.390Z,1009.22
2019-02-07T00:23:58.710Z,1009.15
2019-02-07T00:24:59.673Z,1009.21
2019-02-07T00:25:59.361Z,1009.21
2019-02-07T00:26:59.779Z,1009.16
2019-02-07T00:28:00.197Z,1009.13
2019-02-07T00:29:01.349Z,1009.15
2019-02-07T00:30:01.975Z,1009.03
2019-02-07T00:31:01.576Z,1009.04
2019-02-07T00:32:01.690Z,1009.07
2019-02-07T00:33:01.586Z,1009.09
2019-02-07T00:34:01.551Z,1009.12
2019-02-07T00:35:01.861Z,1009.10
2019-02-07T00:36:02.522Z,1009.01
2019-02-07T00:37:03.454Z,1009.02
2019-02-07T00:38:03.897Z,1009.02
2019-02-07T00:39:04.516Z,1009.03
2019-02-07T00:41:03.984Z,1009.06
2019-02-07T00:42:05.044Z,1009.00
2019-02-07T00:43:04.383Z,1008.96
2019-02-07T00:45:04.830Z,1008.95
2019-02-07T00:46:06.068Z,1008.87
2019-02-07T00:47:06.288Z,1008.89
2019-02-07T00:48:06.696Z,1008.86
2019-02-07T00:49:06.917Z,1008.80
2019-02-07T00:50:07.324Z,1008.89
2019-02-07T00:51:07.534Z,1008.78
2019-02-07T00:52:08.059Z,1008.80
2019-02-07T00:53:07.918Z,1008.75
2019-02-07T00:54:08.172Z,1008.80
2019-02-07T00:55:08.297Z,1008.74
2019-02-07T00:56:08.797Z,1008.82
2019-02-07T00:57:09.017Z,1008.85
2019-02-07T00:58:09.320Z,1008.75
2019-02-07T00:59:09.538Z,1008.73
2019-02-07T01:00:09.449Z,1008.73
2019-02-07T01:01:09.854Z,1008.74
2019-02-07T01:02:09.983Z,1008.74
2019-02-07T01:03:09.664Z,1008.79
2019-02-07T01:04:10.381Z,1008.72
2019-02-07T01:05:10.617Z,1008.68
2019-02-07T01:06:10.532Z,1008.72
2019-02-07T01:07:10.889Z,1008.67
2019-02-07T01:08:10.922Z,1008.66
2019-02-07T01:09:10.917Z,1008.69
2019-02-07T01:10:11.897Z,1008.59
2019-02-07T01:11:11.365Z,1008.64
2019-02-07T01:12:11.874Z,1008.57
2019-02-07T01:13:11.677Z,1008.61
2019-02-07T01:14:12.144Z,1008.53
2019-02-07T01:15:12.880Z,1008.53
2019-02-07T01:16:12.921Z,1008.58
2019-02-07T01:17:12.780Z,1008.55
2019-02-07T01:18:13.100Z,1008.55
2019-02-07T01:19:13.524Z,1008.55
2019-02-07T01:20:14.789Z,1008.54
2019-02-07T01:21:14.137Z,1008.48
2019-02-07T01:22:14.636Z,1008.48
2019-02-07T01:23:14.980Z,1008.50
2019-02-07T01:24:15.839Z,1008.47
2019-02-07T01:25:16.560Z,1008.42
2019-02-07T01:26:16.495Z,1008.41
2019-02-07T01:27:16.434Z,1008.42
2019-02-07T01:28:16.757Z,1008.45
2019-02-07T01:29:17.196Z,1008.39
2019-02-07T01:30:18.544Z,1008.37
2019-02-07T01:31:18.311Z,1008.40
2019-02-07T01:32:18.515Z,1008.30
2019-02-07T01:33:18.421Z,1008.29
2019-02-07T01:34:18.842Z,1008.33
2019-02-07T01:35:19.597Z,1008.23
2019-02-07T01:36:19.706Z,1008.22
2019-02-07T01:37:19.812Z,1008.16
2019-02-07T01:38:20.340Z,1008.31
2019-02-07T01:39:19.827Z,1008.26
2019-02-07T01:40:20.039Z,1008.14
2019-02-07T01:41:20.554Z,1008.18
2019-02-07T01:42:21.485Z,1008.17
2019-02-07T01:43:22.045Z,1008.17
2019-02-07T01:44:22.115Z,1008.17
2019-02-07T01:46:22.227Z,1008.17
2019-02-07T01:47:22.132Z,1008.13
2019-02-07T01:48:22.661Z,1008.10
2019-02-07T01:49:22.682Z,1008.16
2019-02-07T01:50:22.669Z,1008.09
2019-02-07T01:51:22.875Z,1008.09
2019-02-07T01:52:23.150Z,1008.00
2019-02-07T01:53:23.298Z,1008.01
2019-02-07T01:54:23.825Z,1008.04
2019-02-07T01:55:23.621Z,1007.93
2019-02-07T01:56:23.826Z,1007.86
2019-02-07T01:57:24.246Z,1007.94
2019-02-07T01:58:24.661Z,1007.94
2019-02-07T01:59:24.877Z,1007.90
2019-02-07T02:00:24.878Z,1007.97
2019-02-07T02:01:24.891Z,1007.95
2019-02-07T02:02:25.199Z,1007.86
2019-02-07T02:03:25.470Z,1007.88
2019-02-07T02:04:25.539Z,1007.88
2019-02-07T02:05:25.527Z,1007.87
2019-02-07T02:06:25.691Z,1007.79
2019-02-07T02:07:25.712Z,1007.87
2019-02-07T02:08:25.762Z,1007.90
2019-02-07T02:09:25.889Z,1007.87
2019-02-07T02:10:25.814Z,1007.88
2019-02-07T02:11:26.352Z,1007.91
2019-02-07T02:12:26.899Z,1007.89
2019-02-07T02:13:26.310Z,1007.91
2019-02-07T02:14:27.335Z,1007.84
2019-02-07T02:15:26.673Z,1007.92
2019-02-07T02:16:26.987Z,1007.89
2019-02-07T02:17:27.419Z,1007.93
2019-02-07T02:18:28.162Z,1007.94
2019-02-07T02:19:28.702Z,1007.82
2019-02-07T02:20:28.037Z,1007.89
2019-02-07T02:21:28.361Z,1007.97
2019-02-07T02:22:28.831Z,1007.93
2019-02-07T02:23:29.174Z,1007.97
2019-02-07T02:24:29.583Z,1008.04
2019-02-07T02:25:30.135Z,1007.91
2019-02-07T02:26:30.375Z,1007.82
2019-02-07T02:27:30.278Z,1007.78
2019-02-07T02:28:30.897Z,1007.81
2019-02-07T02:29:30.773Z,1007.73
2019-02-07T02:30:31.137Z,1007.68
2019-02-07T02:31:31.296Z,1007.59
2019-02-07T02:32:31.713Z,1007.61
2019-02-07T02:34:32.112Z,1007.59
2019-02-07T02:35:32.460Z,1007.58
2019-02-07T02:36:32.851Z,1007.41
2019-02-07T02:37:33.670Z,1007.61
2019-02-07T02:38:33.487Z,1007.55
2019-02-07T02:39:33.943Z,1007.58
2019-02-07T02:40:34.366Z,1007.57
2019-02-07T02:41:34.234Z,1007.49
2019-02-07T02:42:34.988Z,1007.51
2019-02-07T02:43:35.500Z,1007.44
2019-02-07T02:44:36.233Z,1007.46
2019-02-07T02:45:37.935Z,1007.45
2019-02-07T02:46:36.957Z,1007.34
2019-02-07T02:49:38.006Z,1007.31
2019-02-07T02:50:37.889Z,1007.22
2019-02-07T02:51:38.421Z,1007.28
2019-02-07T02:52:40.294Z,1007.24
2019-02-07T02:53:38.536Z,1007.21
2019-02-07T02:54:38.747Z,1007.19
2019-02-07T02:55:39.069Z,1007.20
2019-02-07T02:56:38.664Z,1007.24
2019-02-07T02:57:39.396Z,1007.21
2019-02-07T02:58:39.593Z,1007.20
2019-02-07T02:59:39.518Z,1007.16
2019-02-07T03:00:40.146Z,1007.09
2019-02-07T03:01:40.330Z,1007.09
2019-02-07T03:02:40.572Z,1007.09
2019-02-07T03:03:40.771Z,1007.05
2019-02-07T03:04:40.917Z,1006.99
2019-02-07T03:05:41.303Z,1007.03
2019-02-07T03:06:41.371Z,1006.96
2019-02-07T03:07:41.442Z,1006.91
2019-02-07T03:08:41.983Z,1006.85
2019-02-07T03:09:41.987Z,1006.85
2019-02-07T03:10:41.974Z,1006.86
2019-02-07T03:11:42.656Z,1006.75
2019-02-07T03:12:42.601Z,1006.74
2019-02-07T03:13:43.888Z,1006.74
2019-02-07T03:14:43.342Z,1006.71
2019-02-07T03:15:49.646Z,1006.67
2019-02-07T03:16:43.977Z,1006.69
2019-02-07T03:17:44.837Z,1006.67
2019-02-07T03:18:44.814Z,1006.69
2019-02-07T03:19:44.805Z,1006.58
2019-02-07T03:20:45.187Z,1006.70
2019-02-07T03:21:45.668Z,1006.82
2019-02-07T03:22:45.992Z,1006.77
2019-02-07T03:23:46.234Z,1006.67
2019-02-07T03:24:46.828Z,1006.69
2019-02-07T03:25:46.612Z,1006.73
2019-02-07T03:26:46.871Z,1006.67
2019-02-07T03:27:47.349Z,1006.74
2019-02-07T03:28:48.213Z,1006.71
2019-02-07T03:29:48.596Z,1006.68
2019-02-07T03:30:48.461Z,1006.60
2019-02-07T03:31:48.589Z,1006.68
2019-02-07T03:32:49.027Z,1006.71
2019-02-07T03:33:49.102Z,1006.68
2019-02-07T03:34:49.335Z,1006.62
2019-02-07T03:36:49.922Z,1006.69
2019-02-07T03:37:50.804Z,1006.72
2019-02-07T03:38:51.527Z,1006.75
2019-02-07T03:39:51.442Z,1006.75
2019-02-07T03:40:51.444Z,1006.67
2019-02-07T03:41:52.066Z,1006.71
2019-02-07T03:42:52.278Z,1006.63
2019-02-07T03:43:52.484Z,1006.67
2019-02-07T03:44:52.595Z,1006.63
2019-02-07T03:46:02.292Z,1006.65
2019-02-07T03:46:52.724Z,1006.66
2019-02-07T03:47:52.918Z,1006.60
2019-02-07T03:48:52.924Z,1006.66
2019-02-07T03:49:53.340Z,1006.62
2019-02-07T03:50:53.658Z,1006.56
2019-02-07T03:51:53.777Z,1006.58
2019-02-07T03:52:54.179Z,1006.63
2019-02-07T03:53:54.593Z,1006.55
2019-02-07T03:54:54.566Z,1006.57
2019-02-07T03:55:54.709Z,1006.56
2019-02-07T03:57:55.030Z,1006.51
2019-02-07T03:58:55.337Z,1006.45
2019-02-07T03:59:55.389Z,1006.49
2019-02-07T04:00:55.978Z,1006.47
2019-02-07T04:01:56.076Z,1006.40
2019-02-07T04:02:56.255Z,1006.36
2019-02-07T04:03:56.275Z,1006.34
2019-02-07T04:04:56.730Z,1006.35
2019-02-07T04:05:56.791Z,1006.31
2019-02-07T04:06:56.800Z,1006.27
2019-02-07T04:07:57.353Z,1006.35
2019-02-07T04:08:57.215Z,1006.35
2019-02-07T04:09:57.526Z,1006.25
2019-02-07T04:10:57.631Z,1006.25
2019-02-07T04:11:58.229Z,1006.15
2019-02-07T04:12:58.344Z,1006.10
2019-02-07T04:13:58.415Z,1006.03
2019-02-07T04:14:58.738Z,1006.02
2019-02-07T04:15:59.312Z,1006.04
2019-02-07T04:16:59.742Z,1006.00
2019-02-07T04:17:59.777Z,1006.02
2019-02-07T04:19:00.116Z,1006.01
2019-02-07T04:20:00.229Z,1006.00
2019-02-07T04:21:00.496Z,1006.04
2019-02-07T04:22:00.927Z,1005.96
2019-02-07T04:23:01.551Z,1005.95
2019-02-07T04:24:01.554Z,1005.97
2019-02-07T04:25:01.762Z,1005.89
2019-02-07T04:26:01.968Z,1005.92
2019-02-07T04:27:02.288Z,1006.05
2019-02-07T04:28:02.505Z,1005.91
2019-02-07T04:29:02.908Z,1005.92
2019-02-07T04:30:03.127Z,1005.88
2019-02-07T04:31:03.450Z,1005.92
2019-02-07T04:32:03.244Z,1005.92
2019-02-07T04:33:03.826Z,1005.89
2019-02-07T04:34:04.080Z,1005.87
2019-02-07T04:35:04.054Z,1005.88
2019-02-07T04:36:04.041Z,1005.88
2019-02-07T04:37:04.921Z,1005.88
2019-02-07T04:38:04.483Z,1005.92
2019-02-07T04:39:05.129Z,1005.90
2019-02-07T04:40:05.348Z,1005.98
2019-02-07T04:41:05.861Z,1006.01
2019-02-07T04:42:06.074Z,1005.96
2019-02-07T04:43:06.804Z,1005.99
2019-02-07T04:44:07.226Z,1005.99
2019-02-07T04:45:07.218Z,1005.94
2019-02-07T04:46:07.233Z,1005.85
2019-02-07T04:47:07.641Z,1005.93
2019-02-07T04:48:07.851Z,1005.94
2019-02-07T04:49:08.478Z,1005.88
2019-02-07T04:50:08.377Z,1005.87
2019-02-07T04:51:08.731Z,1005.81
2019-02-07T04:52:08.595Z,1005.83
2019-02-07T04:53:09.015Z,1005.86
2019-02-07T04:54:08.964Z,1005.83
2019-02-07T04:55:09.531Z,1005.83
2019-02-07T04:56:09.234Z,1005.75
2019-02-07T04:57:09.466Z,1005.73
2019-02-07T04:58:09.965Z,1005.74
2019-02-07T04:59:09.875Z,1005.72
2019-02-07T05:00:10.585Z,1005.76
2019-02-07T05:01:10.716Z,1005.73
2019-02-07T05:02:10.929Z,1005.68
2019-02-07T05:03:10.824Z,1005.73
2019-02-07T05:04:11.266Z,1005.63
2019-02-07T05:05:11.498Z,1005.65
2019-02-07T05:06:11.523Z,1005.59
2019-02-07T05:07:11.513Z,1005.59
2019-02-07T05:08:11.871Z,1005.62
2019-02-07T05:09:12.705Z,1005.60
2019-02-07T05:10:12.195Z,1005.64
2019-02-07T05:11:12.473Z,1005.63
2019-02-07T05:12:12.419Z,1005.55
2019-02-07T05:13:12.886Z,1005.72
2019-02-07T05:14:13.567Z,1005.72
2019-02-07T05:15:13.536Z,1005.64
2019-02-07T05:16:14.077Z,1005.58
2019-02-07T05:17:14.500Z,1005.63
2019-02-07T05:18:14.461Z,1005.57
2019-02-07T05:19:15.343Z,1005.66
2019-02-07T05:20:16.455Z,1005.60
2019-02-07T05:21:15.404Z,1005.58
2019-02-07T05:22:15.929Z,1005.55
2019-02-07T05:23:16.290Z,1005.54
2019-02-07T05:24:16.247Z,1005.54
2019-02-07T05:25:17.306Z,1005.56
2019-02-07T05:26:16.872Z,1005.62
2019-02-07T05:27:17.323Z,1005.60
2019-02-07T05:28:17.494Z,1005.54
2019-02-07T05:29:17.651Z,1005.46
2019-02-07T05:30:18.404Z,1005.45
2019-02-07T05:31:18.477Z,1005.50
2019-02-07T05:32:18.691Z,1005.42
2019-02-07T05:33:19.100Z,1005.44
2019-02-07T05:34:19.202Z,1005.38
2019-02-07T05:35:19.511Z,1005.31
2019-02-07T05:36:19.490Z,1005.40
2019-02-07T05:37:20.059Z,1005.37
2019-02-07T05:38:21.282Z,1005.37
2019-02-07T05:39:21.100Z,1005.33
2019-02-07T05:40:21.622Z,1005.39
2019-02-07T05:41:21.820Z,1005.37
2019-02-07T05:42:22.720Z,1005.37
2019-02-07T05:43:22.547Z,1005.42
2019-02-07T05:44:22.722Z,1005.39
2019-02-07T05:45:22.864Z,1005.32
2019-02-07T05:46:22.900Z,1005.28
2019-02-07T05:47:22.886Z,1005.47
2019-02-07T05:48:23.100Z,1005.38
2019-02-07T05:49:22.995Z,1005.40
2019-02-07T05:50:23.081Z,1005.32
2019-02-07T05:51:23.516Z,1005.35
2019-02-07T05:52:23.833Z,1005.34
2019-02-07T05:54:24.376Z,1005.33
2019-02-07T05:55:24.890Z,1005.29
2019-02-07T05:56:25.090Z,1005.24
2019-02-07T05:57:25.362Z,1005.20
2019-02-07T05:58:25.742Z,1005.30
2019-02-07T05:59:25.841Z,1005.28
2019-02-07T06:00:25.823Z,1005.28
2019-02-07T06:01:26.221Z,1005.17
2019-02-07T06:02:26.885Z,1005.18
2019-02-07T06:03:26.359Z,1005.17
2019-02-07T06:04:26.600Z,1005.15
2019-02-07T06:05:26.796Z,1005.21
2019-02-07T06:06:27.101Z,1005.19
2019-02-07T06:07:27.718Z,1005.18
2019-02-07T06:08:27.695Z,1005.19
2019-02-07T06:09:28.255Z,1005.19
2019-02-07T06:10:28.513Z,1005.23
2019-02-07T06:11:28.547Z,1005.15
2019-02-07T06:12:28.729Z,1005.18
2019-02-07T06:13:28.881Z,1005.19
2019-02-07T06:14:29.271Z,1005.17
2019-02-07T06:15:29.297Z,1005.11
2019-02-07T06:16:29.596Z,1005.06
2019-02-07T06:17:29.590Z,1005.02
2019-02-07T06:18:29.628Z,1005.03
2019-02-07T06:19:29.947Z,1005.08
2019-02-07T06:20:29.910Z,1005.06
2019-02-07T06:21:30.320Z,1005.03
2019-02-07T06:22:30.331Z,1005.11
2019-02-07T06:23:30.763Z,1005.13
2019-02-07T06:24:30.903Z,1005.02
2019-02-07T06:25:30.895Z,1004.99
2019-02-07T06:26:30.826Z,1005.01
2019-02-07T06:27:31.401Z,1004.92
2019-02-07T06:28:31.537Z,1004.99
2019-02-07T06:29:31.632Z,1004.97
2019-02-07T06:30:32.133Z,1004.95
2019-02-07T06:31:32.439Z,1004.95
2019-02-07T06:32:32.472Z,1005.00
2019-02-07T06:33:32.908Z,1005.02
2019-02-07T06:34:33.165Z,1005.07
2019-02-07T06:35:33.414Z,1005.07
2019-02-07T06:36:33.440Z,1005.02
2019-02-07T06:37:33.935Z,1005.08
2019-02-07T06:38:33.835Z,1005.06
2019-02-07T06:39:34.038Z,1005.07
2019-02-07T06:40:34.487Z,1005.06
2019-02-07T06:41:34.597Z,1005.08
2019-02-07T06:42:34.570Z,1005.10
2019-02-07T06:43:34.622Z,1005.18
2019-02-07T06:44:34.591Z,1005.08
2019-02-07T06:45:36.263Z,1004.94
2019-02-07T06:46:36.375Z,1004.91
2019-02-07T06:47:36.478Z,1004.98
2019-02-07T06:48:36.588Z,1004.97
2019-02-07T06:49:36.803Z,1004.93
2019-02-07T06:50:37.010Z,1004.95
2019-02-07T06:51:36.924Z,1004.83
2019-02-07T06:52:37.233Z,1004.89
2019-02-07T06:53:37.243Z,1004.88
2019-02-07T06:54:37.344Z,1004.93
2019-02-07T06:55:37.453Z,1004.90
2019-02-07T06:56:37.683Z,1004.89
2019-02-07T06:57:37.673Z,1004.86
2019-02-07T06:58:38.561Z,1004.76
2019-02-07T06:59:38.725Z,1004.78
2019-02-07T07:00:38.512Z,1004.71
2019-02-07T07:01:47.809Z,1004.71
2019-02-07T07:02:38.828Z,1004.79
2019-02-07T07:03:38.634Z,1004.82
2019-02-07T07:04:38.947Z,1004.84
2019-02-07T07:05:39.257Z,1004.88
2019-02-07T07:06:39.805Z,1004.88
2019-02-07T07:07:39.984Z,1004.87
2019-02-07T07:08:40.405Z,1004.89
2019-02-07T07:09:40.761Z,1004.89
2019-02-07T07:10:40.743Z,1004.87
2019-02-07T07:11:41.154Z,1004.90
2019-02-07T07:12:40.800Z,1004.75
2019-02-07T07:13:41.273Z,1004.84
2019-02-07T07:14:41.260Z,1004.90
2019-02-07T07:15:41.243Z,1004.91
2019-02-07T07:16:41.518Z,1004.89
2019-02-07T07:17:41.797Z,1004.88
2019-02-07T07:18:41.853Z,1004.84
2019-02-07T07:19:45.040Z,1004.83
2019-02-07T07:20:42.312Z,1004.83
2019-02-07T07:21:42.264Z,1004.86
2019-02-07T07:22:42.516Z,1004.81
2019-02-07T07:23:42.683Z,1004.81
2019-02-07T07:24:43.170Z,1004.83
2019-02-07T07:25:43.703Z,1004.77
2019-02-07T07:26:43.770Z,1004.70
2019-02-07T07:27:44.180Z,1004.73
2019-02-07T07:28:44.170Z,1004.60
2019-02-07T07:29:44.948Z,1004.66
2019-02-07T07:30:45.366Z,1004.55
2019-02-07T07:31:45.168Z,1004.56
2019-02-07T07:32:45.670Z,1004.62
2019-02-07T07:33:45.256Z,1004.60
2019-02-07T07:35:46.213Z,1004.66
2019-02-07T07:36:45.682Z,1004.62
2019-02-07T07:37:46.093Z,1004.63
2019-02-07T07:38:46.339Z,1004.64
2019-02-07T07:39:46.616Z,1004.65
2019-02-07T07:40:47.262Z,1004.61
2019-02-07T07:41:47.339Z,1004.63
2019-02-07T07:42:47.355Z,1004.59
2019-02-07T07:43:47.476Z,1004.46
2019-02-07T07:44:47.430Z,1004.47
2019-02-07T07:45:47.973Z,1004.50
2019-02-07T07:46:48.538Z,1004.62
2019-02-07T07:47:48.486Z,1004.70
2019-02-07T07:48:49.197Z,1004.59
2019-02-07T07:49:49.485Z,1004.63
2019-02-07T07:50:49.797Z,1004.64
2019-02-07T07:51:58.452Z,1004.50
2019-02-07T07:52:52.923Z,1004.48
2019-02-07T07:53:51.151Z,1004.55
2019-02-07T07:54:51.668Z,1004.56
2019-02-07T07:55:51.770Z,1004.50
2019-02-07T07:56:51.981Z,1004.52
2019-02-07T07:57:52.000Z,1004.55
2019-02-07T07:58:52.404Z,1004.59
2019-02-07T07:59:52.523Z,1004.64
2019-02-07T08:00:52.767Z,1004.58
2019-02-07T08:01:53.434Z,1004.54
2019-02-07T08:02:53.471Z,1004.63
2019-02-07T08:03:53.575Z,1004.60
2019-02-07T08:04:54.091Z,1004.52
2019-02-07T08:05:53.802Z,1004.60
2019-02-07T08:06:54.507Z,1004.59
2019-02-07T08:07:54.631Z,1004.55
2019-02-07T08:08:54.717Z,1004.55
2019-02-07T08:09:55.800Z,1004.48
2019-02-07T08:10:55.401Z,1004.51
2019-02-07T08:11:55.465Z,1004.62
2019-02-07T08:12:55.802Z,1004.58
2019-02-07T08:13:55.778Z,1004.52
2019-02-07T08:14:55.822Z,1004.58
2019-02-07T08:15:55.781Z,1004.58
2019-02-07T08:16:56.035Z,1004.57
2019-02-07T08:17:56.057Z,1004.52
2019-02-07T08:18:56.147Z,1004.52
2019-02-07T08:19:56.845Z,1004.46
2019-02-07T08:20:56.404Z,1004.51
2019-02-07T08:21:56.567Z,1004.72
2019-02-07T08:22:56.524Z,1004.71
2019-02-07T08:23:56.633Z,1004.65
2019-02-07T08:24:56.637Z,1004.55
2019-02-07T08:25:56.649Z,1004.55
2019-02-07T08:26:56.843Z,1004.57
2019-02-07T08:27:57.367Z,1004.57
2019-02-07T08:28:57.821Z,1004.58
2019-02-07T08:29:57.797Z,1004.61
2019-02-07T08:30:58.317Z,1004.41
2019-02-07T08:31:59.402Z,1004.42
2019-02-07T08:33:05.084Z,1004.45
2019-02-07T08:33:58.488Z,1004.56
2019-02-07T08:34:58.989Z,1004.47
2019-02-07T08:35:59.291Z,1004.45
2019-02-07T08:36:59.311Z,1004.52
2019-02-07T08:37:59.302Z,1004.47
2019-02-07T08:39:00.098Z,1004.57
2019-02-07T08:40:00.437Z,1004.49
2019-02-07T08:41:00.406Z,1004.48
2019-02-07T08:42:00.776Z,1004.43
2019-02-07T08:43:01.190Z,1004.41
2019-02-07T08:44:01.003Z,1004.36
2019-02-07T08:45:00.686Z,1004.32
2019-02-07T08:46:01.363Z,1004.31
2019-02-07T08:47:01.488Z,1004.30
2019-02-07T08:48:03.956Z,1004.30
2019-02-07T08:49:02.854Z,1004.29
2019-02-07T08:50:03.386Z,1004.29
2019-02-07T08:51:03.393Z,1004.29
2019-02-07T08:52:03.914Z,1004.28
2019-02-07T08:53:03.114Z,1004.26
2019-02-07T08:54:03.719Z,1004.27
2019-02-07T08:55:03.290Z,1004.29
2019-02-07T08:56:03.937Z,1004.31
2019-02-07T08:57:03.844Z,1004.32
2019-02-07T08:58:04.428Z,1004.30
2019-02-07T08:59:04.531Z,1004.28
2019-02-07T09:00:04.616Z,1004.27
2019-02-07T09:01:06.226Z,1004.25
2019-02-07T09:02:06.128Z,1004.25
2019-02-07T09:03:06.447Z,1004.24
2019-02-07T09:04:07.070Z,1004.23
2019-02-07T09:05:07.071Z,1004.19
2019-02-07T09:06:07.076Z,1004.16
2019-02-07T09:07:07.491Z,1004.13
2019-02-07T09:08:07.874Z,1004.11
2019-02-07T09:09:08.337Z,1004.09
2019-02-07T09:10:08.126Z,1004.06
2019-02-07T09:11:08.335Z,1004.03
2019-02-07T09:12:08.752Z,1004.01
2019-02-07T09:13:08.964Z,1003.98
2019-02-07T09:14:09.068Z,1003.98
2019-02-07T09:15:09.193Z,1004.00
2019-02-07T09:16:09.696Z,1004.00
2019-02-07T09:17:10.022Z,1003.97
2019-02-07T09:18:13.216Z,1003.94
2019-02-07T09:19:10.473Z,1003.92
2019-02-07T09:20:10.634Z,1003.94
2019-02-07T09:21:10.637Z,1003.94
2019-02-07T09:22:11.278Z,1003.96
2019-02-07T09:23:10.968Z,1003.98
2019-02-07T09:24:11.164Z,1003.99
2019-02-07T09:25:11.674Z,1004.00
2019-02-07T09:26:11.755Z,1004.01
2019-02-07T09:27:12.208Z,1004.04
2019-02-07T09:28:12.889Z,1004.04
2019-02-07T09:29:12.664Z,1004.04
2019-02-07T09:30:12.635Z,1004.05
2019-02-07T09:31:12.870Z,1004.06
2019-02-07T09:32:13.055Z,1004.08
2019-02-07T09:33:13.599Z,1004.11
2019-02-07T09:34:13.432Z,1004.15
2019-02-07T09:35:14.239Z,1004.19
2019-02-07T09:36:13.764Z,1004.21
2019-02-07T09:37:14.213Z,1004.20
2019-02-07T09:38:14.603Z,1004.19
2019-02-07T09:39:14.863Z,1004.18
2019-02-07T09:40:15.911Z,1004.17
2019-02-07T09:41:15.195Z,1004.16
2019-02-07T09:42:16.017Z,1004.16
2019-02-07T09:43:15.830Z,1004.14
2019-02-07T09:44:15.890Z,1004.13
2019-02-07T09:45:16.487Z,1004.12
2019-02-07T09:46:16.148Z,1004.13
2019-02-07T09:47:16.218Z,1004.14
2019-02-07T09:48:21.627Z,1004.14
2019-02-07T09:49:16.738Z,1004.14
2019-02-07T09:50:18.013Z,1004.15
2019-02-07T09:51:17.376Z,1004.15
2019-02-07T09:52:17.682Z,1004.11
2019-02-07T09:53:24.083Z,1004.10
2019-02-07T09:54:18.238Z,1004.07
2019-02-07T09:55:18.354Z,1004.05
2019-02-07T09:56:18.549Z,1004.05
2019-02-07T09:57:18.660Z,1004.07
2019-02-07T09:58:19.089Z,1004.05
2019-02-07T09:59:19.064Z,1004.05
2019-02-07T10:00:19.406Z,1004.04
2019-02-07T10:01:19.387Z,1004.03
2019-02-07T10:02:19.544Z,1004.02
2019-02-07T10:03:19.842Z,1003.99
2019-02-07T10:04:21.389Z,1003.99
2019-02-07T10:05:21.187Z,1003.98
2019-02-07T10:06:21.796Z,1003.96
2019-02-07T10:07:21.916Z,1003.97
2019-02-07T10:08:22.023Z,1003.95
2019-02-07T10:09:22.505Z,1003.94
2019-02-07T10:10:22.752Z,1003.92
2019-02-07T10:11:22.943Z,1003.92
2019-02-07T10:12:23.078Z,1003.91
2019-02-07T10:13:23.597Z,1003.89
2019-02-07T10:14:23.595Z,1003.87
2019-02-07T10:15:23.956Z,1003.84
2019-02-07T10:16:23.925Z,1003.83
2019-02-07T10:17:24.331Z,1003.82
2019-02-07T10:18:32.802Z,1003.82
2019-02-07T10:19:24.547Z,1003.81
2019-02-07T10:20:25.273Z,1003.82
2019-02-07T10:21:25.613Z,1003.81
2019-02-07T10:22:25.699Z,1003.81
2019-02-07T10:23:25.967Z,1003.82
2019-02-07T10:24:26.203Z,1003.84
2019-02-07T10:25:26.343Z,1003.85
2019-02-07T10:26:26.537Z,1003.84
2019-02-07T10:27:26.864Z,1003.80
2019-02-07T10:28:27.680Z,1003.78
2019-02-07T10:29:27.141Z,1003.78
2019-02-07T10:30:27.142Z,1003.78
2019-02-07T10:31:27.368Z,1003.81
2019-02-07T10:32:27.378Z,1003.81
2019-02-07T10:33:27.437Z,1003.82
2019-02-07T10:34:28.467Z,1003.81
2019-02-07T10:35:28.398Z,1003.82
2019-02-07T10:36:28.392Z,1003.82
2019-02-07T10:37:29.310Z,1003.84
2019-02-07T10:38:28.975Z,1003.85
2019-02-07T10:39:29.496Z,1003.88
2019-02-07T10:40:29.426Z,1003.88
2019-02-07T10:41:31.882Z,1003.87
2019-02-07T10:42:29.829Z,1003.87
2019-02-07T10:43:30.341Z,1003.88
2019-02-07T10:44:30.653Z,1003.87
2019-02-07T10:45:30.897Z,1003.86
2019-02-07T10:46:31.613Z,1003.84
2019-02-07T10:47:31.602Z,1003.85
2019-02-07T10:48:31.693Z,1003.85
2019-02-07T10:49:31.683Z,1003.85
2019-02-07T10:50:32.475Z,1003.88
2019-02-07T10:51:32.362Z,1003.88
2019-02-07T10:52:32.753Z,1003.88
2019-02-07T10:53:32.714Z,1003.89
2019-02-07T10:54:32.770Z,1003.88
2019-02-07T10:55:33.810Z,1003.86
2019-02-07T10:56:33.368Z,1003.83
2019-02-07T10:57:33.915Z,1003.81
2019-02-07T10:58:34.025Z,1003.82
2019-02-07T10:59:34.333Z,1003.81
2019-02-07T11:00:34.337Z,1003.80
2019-02-07T11:01:34.808Z,1003.81
2019-02-07T11:02:36.303Z,1003.82
2019-02-07T11:03:36.716Z,1003.82
2019-02-07T11:04:36.826Z,1003.84
2019-02-07T11:05:36.704Z,1003.85
2019-02-07T11:06:37.164Z,1003.85
2019-02-07T11:07:37.560Z,1003.85
2019-02-07T11:08:37.887Z,1003.85
2019-02-07T11:09:38.057Z,1003.87
2019-02-07T11:10:37.924Z,1003.85
2019-02-07T11:11:38.310Z,1003.83
2019-02-07T11:12:38.618Z,1003.79
2019-02-07T11:13:39.340Z,1003.79
2019-02-07T11:14:39.141Z,1003.78
2019-02-07T11:15:39.665Z,1003.77
2019-02-07T11:16:39.675Z,1003.76
2019-02-07T11:17:39.871Z,1003.77
2019-02-07T11:18:40.295Z,1003.77
2019-02-07T11:19:40.416Z,1003.75
2019-02-07T11:20:40.615Z,1003.72
2019-02-07T11:21:40.916Z,1003.67
2019-02-07T11:22:40.950Z,1003.66
2019-02-07T11:23:40.905Z,1003.66
2019-02-07T11:24:41.214Z,1003.60
2019-02-07T11:25:41.293Z,1003.58
2019-02-07T11:26:41.742Z,1003.57
2019-02-07T11:27:42.515Z,1003.54
2019-02-07T11:28:42.095Z,1003.54
2019-02-07T11:29:42.559Z,1003.50
2019-02-07T11:30:42.625Z,1003.50
2019-02-07T11:31:43.022Z,1003.48
2019-02-07T11:32:43.152Z,1003.49
2019-02-07T11:33:43.153Z,1003.47
2019-02-07T11:34:45.970Z,1003.47
2019-02-07T11:35:43.636Z,1003.47
2019-02-07T11:36:53.522Z,1003.47
2019-02-07T11:37:43.864Z,1003.47
2019-02-07T11:38:44.104Z,1003.46
2019-02-07T11:39:44.625Z,1003.48
2019-02-07T11:40:44.796Z,1003.45
2019-02-07T11:41:45.876Z,1003.43
2019-02-07T11:42:45.745Z,1003.41
2019-02-07T11:43:45.481Z,1003.40
2019-02-07T11:44:45.358Z,1003.39
2019-02-07T11:45:45.459Z,1003.37
2019-02-07T11:46:48.712Z,1003.35
2019-02-07T11:47:46.123Z,1003.32
2019-02-07T11:48:46.086Z,1003.32
2019-02-07T11:49:46.404Z,1003.30
2019-02-07T11:50:46.982Z,1003.31
2019-02-07T11:51:46.995Z,1003.32
2019-02-07T11:52:47.184Z,1003.31
2019-02-07T11:53:47.252Z,1003.29
2019-02-07T11:54:47.765Z,1003.27
2019-02-07T11:55:48.086Z,1003.25
2019-02-07T11:56:48.188Z,1003.26
2019-02-07T11:57:48.533Z,1003.22
2019-02-07T11:58:48.812Z,1003.20
2019-02-07T11:59:49.779Z,1003.19
2019-02-07T12:00:49.968Z,1003.19
2019-02-07T12:01:50.412Z,1003.16
2019-02-07T12:02:50.532Z,1003.15
2019-02-07T12:03:50.829Z,1003.13
2019-02-07T12:04:51.765Z,1003.13
2019-02-07T12:05:51.661Z,1003.12
2019-02-07T12:06:51.977Z,1003.09
2019-02-07T12:07:52.094Z,1003.09
2019-02-07T12:08:52.211Z,1003.09
2019-02-07T12:09:52.476Z,1003.09
2019-02-07T12:10:52.556Z,1003.09
2019-02-07T12:11:52.932Z,1003.08
2019-02-07T12:12:53.457Z,1003.07
2019-02-07T12:13:53.915Z,1003.05
2019-02-07T12:14:54.382Z,1003.05
2019-02-07T12:15:54.915Z,1003.06
2019-02-07T12:16:55.217Z,1003.06
2019-02-07T12:17:55.334Z,1003.10
2019-02-07T12:18:55.492Z,1003.13